• Join FlightAware (Why Join?)
  • Login
  • US Flag 
07:30AM EDT


 

Airport Tracker/Info


-or-


 

Live Flight TrackerFlight Track Log ✈ AWE710 ✈ 07-Apr-2013 ✈ KPHL - LSZH / ZRH

Flight Track Log - Related Links

Times and Time Zones

All times are in EDT time to prevent confusion due to time zone crossing. See the AWE710 flight status page for this flight to view local times or setup timezone preferences in your user account.

Time Position Orientation Groundspeed Altitude Reporting Facility
EDT Latitude Longitude Course Direction KTS MPH feet Rate Location/Type
08:01PM 39.8570 -75.2878 232° Southwest 164 189 1,300  Level FlightAware ADS-B
08:01PM 39.8546 -75.2912 227° Southwest 159 183 1,600 3,000 Climbing FlightAware ADS-B
08:01PM 39.8522 -75.2943 225° Southwest 157 181 1,800 1,500 Climbing FlightAware ADS-B
08:01PM 39.8438 -75.3042 222° Southwest 175 201 2,100 1,080 Climbing FlightAware ADS-B
08:01PM 39.8394 -75.3092 221° Southwest 185 213 2,200 1,620 Climbing FlightAware ADS-B
08:01PM 39.8291 -75.3204 220° Southwest 193 222 2,700 2,280 Climbing FlightAware ADS-B
08:02PM 39.8172 -75.3321 217° Southwest 198 228 3,400 2,280 Climbing FlightAware ADS-B
08:02PM 39.8100 -75.3391 217° Southwest 207 238 3,700 1,920 Climbing FlightAware ADS-B
08:02PM 39.7980 -75.3504 216° Southwest 213 245 4,200 2,280 Climbing FlightAware ADS-B
08:02PM 39.7813 -75.3661 216° Southwest 220 253 5,100 2,400 Climbing FlightAware ADS-B
08:03PM 39.7733 -75.3736 216° Southwest 225 259 5,400 1,980 Climbing FlightAware ADS-B
08:03PM 39.7707 -75.3758 213° Southwest 229 264 5,500 1,680 Climbing FlightAware ADS-B
08:03PM 39.7669 -75.3781 205° Southwest 235 270 5,600 1,200 Climbing FlightAware ADS-B
08:03PM 39.7611 -75.3805 198° South 245 282 5,700 1,200 Climbing FlightAware ADS-B
08:03PM 39.7564 -75.3813 187° South 252 290 5,800 1,500 Climbing FlightAware ADS-B
08:03PM 39.7515 -75.3815 182° South 260 299 5,900 1,500 Climbing FlightAware ADS-B
08:03PM 39.7467 -75.3810 175° South 267 307 6,000 1,680 Climbing FlightAware ADS-B
08:03PM 39.7429 -75.3801 170° South 270 311 6,100 1,980 Climbing FlightAware ADS-B
08:03PM 39.7355 -75.3772 163° South 276 318 6,300 2,160 Climbing FlightAware ADS-B
08:03PM 39.7293 -75.3734 155° Southeast 282 325 6,500 2,400 Climbing FlightAware ADS-B
08:03PM 39.7245 -75.3693 147° Southeast 285 328 6,700 2,400 Climbing FlightAware ADS-B
08:03PM 39.7195 -75.3636 139° Southeast 290 334 6,900 2,640 Climbing FlightAware ADS-B
08:04PM 39.7152 -75.3577 133° Southeast 295 339 7,100 2,220 Climbing FlightAware ADS-B
08:04PM 39.7121 -75.3524 127° Southeast 297 342 7,200 1,980 Climbing FlightAware ADS-B
08:04PM 39.7091 -75.3455 119° Southeast 301 346 7,400 2,400 Climbing FlightAware ADS-B
08:04PM 39.7061 -75.3376 116° Southeast 304 350 7,600 2,220 Climbing FlightAware ADS-B
08:04PM 39.7046 -75.3317 108° East 305 351 7,700 3,000 Climbing FlightAware ADS-B
08:04PM 39.7032 -75.3254 106° East 307 353 7,900 3,000 Climbing FlightAware ADS-B
08:04PM 39.7020 -75.3163 100° East 308 354 8,100 1,980 Climbing FlightAware ADS-B
08:04PM 39.7017 -75.3041 92° East 310 357 8,300 1,800 Climbing FlightAware ADS-B
08:04PM 39.7023 -75.2938 86° East 310 357 8,500 1,980 Climbing FlightAware ADS-B
08:04PM 39.7034 -75.2867 79° East 310 357 8,600 2,220 Climbing FlightAware ADS-B
08:04PM 39.7049 -75.2792 75° East 310 357 8,800 2,400 Climbing FlightAware ADS-B
08:04PM 39.7077 -75.2696 69° East 309 356 9,000 2,700 Climbing FlightAware ADS-B
08:04PM 39.7110 -75.2600 66° East 309 356 9,300 2,400 Climbing FlightAware ADS-B
08:05PM 39.7199 -75.2357 65° Northeast 316 364 9,800 1,980 Climbing FlightAware ADS-B
08:05PM 39.7236 -75.2241 67° East 321 369 10,000 1,740 Climbing FlightAware ADS-B
08:05PM 39.7284 -75.2052 72° East 330 380 10,300 1,680 Climbing FlightAware ADS-B
08:05PM 39.7300 -75.1975 75° East 334 384 10,400 1,740 Climbing FlightAware ADS-B
08:05PM 39.7341 -75.1714 78° East 342 394 10,800 1,620 Climbing FlightAware ADS-B
08:06PM 39.7420 -75.1082 81° East 370 426 11,600 1,080 Climbing FlightAware ADS-B
08:06PM 39.7511 -75.0404 80° East 386 444 11,900 240 Climbing FlightAware ADS-B
08:07PM 39.7614 -74.9702 79° East 397 457 11,900  Level FlightAware ADS-B
08:07PM 39.7730 -74.8880 80° East 397 457 11,900  Level FlightAware
08:08PM 39.7793 -74.8453 79° East 400 460 11,900  Level FlightAware ADS-B
08:08PM 39.7890 -74.7737 80° East 398 458 11,900 240 Level FlightAware ADS-B
08:08PM 39.7975 -74.7336 75° East 401 461 12,100 1,200 Climbing FlightAware ADS-B
08:09PM 39.8083 -74.7091 60° Northeast 407 468 12,500 2,280 Climbing FlightAware ADS-B
08:09PM 39.8156 -74.6962 54° Northeast 408 470 12,800 2,460 Climbing FlightAware ADS-B
08:09PM 39.8289 -74.6786 45° Northeast 410 472 13,200 2,400 Climbing FlightAware ADS-B
08:09PM 39.8776 -74.6288 38° Northeast 421 484 14,500 2,400 Climbing FlightAware ADS-B
08:10PM 39.9300 -74.5769 37° Northeast 429 494 15,900 2,400 Climbing FlightAware ADS-B
08:11PM 39.9787 -74.5294 37° Northeast 437 503 17,100 2,220 Climbing FlightAware ADS-B
08:11PM 40.0309 -74.4779 37° Northeast 451 519 18,200 2,100 Climbing FlightAware ADS-B
08:12PM 40.0814 -74.4279 37° Northeast 461 531 19,300 2,100 Climbing FlightAware ADS-B
08:12PM 40.1380 -74.3710 38° Northeast 469 540 20,500 2,100 Climbing FlightAware
08:12PM 40.1535 -74.3553 38° Northeast 468 539 20,800 2,220 Climbing FlightAware ADS-B
08:13PM 40.2103 -74.2978 38° Northeast 476 548 22,000 2,040 Climbing FlightAware ADS-B
08:13PM 40.2700 -74.2384 37° Northeast 484 557 23,100 1,980 Climbing FlightAware ADS-B
08:14PM 40.3291 -74.1797 37° Northeast 492 566 24,200 1,860 Climbing FlightAware ADS-B
08:14PM 40.3840 -74.1246 37° Northeast 499 574 25,100 1,740 Climbing FlightAware ADS-B
08:15PM 40.4412 -74.0664 38° Northeast 504 580 26,000 1,620 Climbing FlightAware ADS-B
08:15PM 40.4995 -74.0067 38° Northeast 513 590 26,800 1,860 Climbing FlightAware ADS-B
08:16PM 40.5560 -73.9488 38° Northeast 513 590 27,900 2,040 Climbing FlightAware ADS-B
08:17PM 40.6165 -73.8869 38° Northeast 512 589 29,000 1,800 Climbing FlightAware ADS-B
08:17PM 40.6819 -73.8199 38° Northeast 513 590 30,000 1,620 Climbing FlightAware ADS-B
08:18PM 40.7366 -73.7588 40° Northeast 519 597 30,800 1,680 Climbing FlightAware ADS-B
08:18PM 40.7691 -73.7168 44° Northeast 518 596 31,400 1,800 Climbing FlightAware ADS-B
08:18PM 40.8182 -73.6440 48° Northeast 519 597 32,300 1,500 Climbing FlightAware ADS-B
08:19PM 40.8669 -73.5694 49° Northeast 519 597 33,000 660 Climbing FlightAware ADS-B
08:19PM 40.9158 -73.4946 49° Northeast 526 605 33,000  Level FlightAware ADS-B
08:20PM 40.9639 -73.4205 49° Northeast 525 604 33,000  Level FlightAware ADS-B
08:20PM 41.0118 -73.3458 50° Northeast 522 601 33,000  Level FlightAware ADS-B
08:21PM 41.0811 -73.2191 54° Northeast 523 602 33,000  Level FlightAware ADS-B
08:22PM 41.1209 -73.1353 58° Northeast 522 601 33,000  Level FlightAware ADS-B
08:22PM 41.1591 -73.0516 59° Northeast 523 602 33,000  Level FlightAware ADS-B
08:23PM 41.2039 -72.9520 59° Northeast 523 602 33,000  Level FlightAware ADS-B
08:24PM 41.2590 -72.8272 60° Northeast 525 604 33,000  Level FlightAware ADS-B
08:24PM 41.2959 -72.7424 60° Northeast 526 605 33,000  Level FlightAware ADS-B
08:25PM 41.3494 -72.6190 60° Northeast 527 606 33,000  Level FlightAware ADS-B
08:26PM 41.4310 -72.4320 60° Northeast 529 609 33,000  Level FlightAware
08:27PM 41.4840 -72.3100 60° Northeast 530 610 33,000  Level FlightAware
08:28PM 41.5350 -72.1910 60° Northeast 532 612 33,000  Level FlightAware
08:28PM 41.5870 -72.0720 60° Northeast 533 613 33,000  Level FlightAware
08:29PM 41.6440 -71.9370 60° Northeast 536 617 33,000  Level FlightAware
08:30PM 41.6910 -71.8260 60° Northeast 536 617 33,000  Level FlightAware
08:30PM 41.7440 -71.7000 61° Northeast 536 617 33,000  Level FlightAware
08:31PM 41.7940 -71.5810 61° Northeast 536 617 33,000  Level FlightAware
08:32PM 41.8420 -71.4660 61° Northeast 536 617 33,000  Level FlightAware
08:32PM 41.8980 -71.3330 60° Northeast 534 615 33,000  Level FlightAware
08:33PM 41.9450 -71.2210 61° Northeast 535 616 33,000  Level FlightAware
08:34PM 42.0010 -71.0860 61° Northeast 534 615 33,000  Level FlightAware
08:35PM 42.0460 -70.9760 61° Northeast 533 613 33,000  Level FlightAware
08:35PM 42.0950 -70.8580 61° Northeast 533 613 33,000  Level FlightAware
08:36PM 42.1500 -70.7240 61° Northeast 534 615 33,000  Level FlightAware
08:37PM 42.1980 -70.6060 61° Northeast 535 616 33,000  Level FlightAware
08:37PM 42.2430 -70.4950 61° Northeast 536 617 33,000  Level FlightAware
08:38PM 42.2990 -70.3560 61° Northeast 535 616 33,000  Level FlightAware
08:39PM 42.3430 -70.2480 61° Northeast 531 611 33,000  Level FlightAware
08:39PM 42.3990 -70.1060 62° Northeast 529 609 33,000  Level FlightAware
08:40PM 42.4460 -69.9900 61° Northeast 529 609 33,000  Level FlightAware
08:41PM 42.4870 -69.8870 62° Northeast 527 606 33,000  Level FlightAware
08:42PM 42.5430 -69.7460 62° Northeast 528 608 33,000  Level FlightAware
08:42PM 42.5920 -69.6230 62° Northeast 527 606 33,000  Level FlightAware
08:43PM 42.6390 -69.5050 62° Northeast 527 606 33,000  Level FlightAware
08:44PM 42.6920 -69.3740 61° Northeast 527 606 33,000  Level FlightAware
08:44PM 42.7320 -69.2730 62° Northeast 528 608 33,000  Level FlightAware
08:45PM 42.7780 -69.1550 62° Northeast 527 606 33,000  Level FlightAware
08:46PM 42.8310 -69.0160 62° Northeast 530 610 33,000  Level FlightAware
08:46PM 42.8800 -68.8860 63° Northeast 529 609 33,000  Level FlightAware
08:47PM 42.9310 -68.7540 62° Northeast 528 608 33,000  Level FlightAware
08:48PM 42.9760 -68.6360 62° Northeast 528 608 33,000  Level FlightAware
08:49PM 43.0270 -68.5030 62° Northeast 527 606 33,000  Level FlightAware
08:49PM 43.0710 -68.3850 63° Northeast 528 608 33,000  Level FlightAware
08:50PM 43.1180 -68.2650 62° Northeast 528 608 33,000 1,200 Level FlightAware
08:51PM 43.1810 -68.0920 63° Northeast 512 589 35,000 1,080 Climbing FlightAware
08:52PM 43.2290 -67.9600 63° Northeast 515 593 35,000  Level FlightAware
08:53PM 43.2890 -67.8010 63° Northeast 508 585 35,000  Level FlightAware
08:53PM 43.3320 -67.6820 64° Northeast 510 587 35,000  Level FlightAware
08:54PM 43.3740 -67.5680 63° Northeast 509 586 35,000  Level FlightAware
08:54PM 43.4110 -67.4660 63° Northeast 508 585 35,000  Level FlightAware
08:55PM 43.4630 -67.3240 63° Northeast 506 582 35,000  Level FlightAware
08:57PM 43.5640 -67.0440 63° Northeast 503 579 35,000  Level FlightAware
08:58PM 43.6630 -66.8070 60° Northeast 508 585 35,000  Level FlightAware
09:00PM 43.7470 -66.6110 59° Northeast 509 586 35,000  Level FlightAware
09:01PM 43.8310 -66.4160 59° Northeast 510 587 35,000  Level FlightAware
09:02PM 43.9080 -66.2330 60° Northeast 510 587 35,000  Level FlightAware
09:03PM 44.0110 -65.9910 59° Northeast 512 589 35,000  Level FlightAware
09:04PM 44.0810 -65.8210 60° Northeast 512 589 35,000  Level FlightAware
09:05PM 44.1660 -65.6160 60° Northeast 509 586 35,000  Level FlightAware
09:06PM 44.2330 -65.4520 60° Northeast 513 590 35,000  Level FlightAware
09:07PM 44.2800 -65.3350 61° Northeast 514 592 35,000  Level FlightAware
09:08PM 44.3320 -65.2080 60° Northeast 515 593 35,000  Level FlightAware
09:08PM 44.3790 -65.0900 61° Northeast 514 592 35,000  Level FlightAware
09:09PM 44.4260 -64.9730 61° Northeast 513 590 35,000  Level FlightAware
09:10PM 44.4770 -64.8450 61° Northeast 513 590 35,000  Level FlightAware
09:10PM 44.5240 -64.7280 61° Northeast 513 590 35,000  Level FlightAware
09:11PM 44.5690 -64.6140 61° Northeast 512 589 35,000  Level FlightAware
09:12PM 44.6230 -64.4810 60° Northeast 509 586 35,000  Level FlightAware
09:13PM 44.6680 -64.3660 61° Northeast 509 586 35,000  Level FlightAware
09:13PM 44.7190 -64.2370 61° Northeast 508 585 35,000  Level FlightAware
09:14PM 44.7640 -64.1210 61° Northeast 507 583 35,000  Level FlightAware
09:15PM 44.8070 -64.0090 62° Northeast 506 582 35,000  Level FlightAware
09:15PM 44.8550 -63.8840 62° Northeast 505 581 35,000  Level FlightAware
09:16PM 44.9000 -63.7710 61° Northeast 505 581 35,000  Level FlightAware
09:17PM 44.9600 -63.6120 62° Northeast 505 581 35,000  Level FlightAware
09:18PM 44.9980 -63.5130 61° Northeast 505 581 35,000  Level FlightAware
09:18PM 45.0370 -63.4150 61° Northeast 505 581 35,000  Level FlightAware
09:19PM 45.0850 -63.2920 61° Northeast 505 581 35,000  Level FlightAware
09:20PM 45.1240 -63.1940 61° Northeast 505 581 35,000  Level FlightAware
09:20PM 45.1620 -63.0950 61° Northeast 505 581 35,000  Level FlightAware
09:21PM 45.2010 -62.9970 61° Northeast 505 581 35,000  Level FlightAware
09:22PM 45.2390 -62.8980 61° Northeast 505 581 35,000  Level FlightAware
09:23PM 45.2870 -62.7750 61° Northeast 505 581 35,000  Level FlightAware
09:23PM 45.3260 -62.6760 61° Northeast 505 581 35,000  Level FlightAware
09:24PM 45.3640 -62.5770 61° Northeast 505 581 35,000  Level FlightAware
09:25PM 45.4030 -62.4780 61° Northeast 505 581 35,000  Level FlightAware
09:25PM 45.4410 -62.3790 61° Northeast 505 581 35,000  Level FlightAware
09:26PM 45.4890 -62.2550 61° Northeast 505 581 35,000  Level FlightAware
09:27PM 45.5833 -61.8500 61° Northeast 500 575 35,000  Level Gander Center
09:27PM 45.6000 -61.8167 54° Northeast 500 575 35,000  Level Moncton Center
09:28PM 45.6500 -61.6167 70° East 500 575 35,000  Level Moncton Center
09:29PM 45.7167 -61.4500 60° Northeast 500 575 35,000  Level Moncton Center
09:30PM 45.7833 -61.2833 60° Northeast 500 575 35,000  Level Moncton Center
09:31PM 45.8500 -61.0833 64° Northeast 510 587 35,000  Level Moncton Center
09:32PM 45.9000 -60.9167 67° East 510 587 35,000  Level Moncton Center
09:33PM 45.9833 -60.7167 59° Northeast 510 587 35,000  Level Moncton Center
09:39PM 46.3200 -59.7780 59° Northeast 521 600 35,000  Level FlightAware
09:40PM 46.3870 -59.5750 64° Northeast 522 601 35,000  Level FlightAware
09:41PM 46.4300 -59.4460 64° Northeast 522 601 35,000  Level FlightAware
09:42PM 46.4660 -59.3390 64° Northeast 522 601 35,000  Level FlightAware
09:42PM 46.5020 -59.2310 64° Northeast 522 601 35,000  Level FlightAware
09:43PM 46.5470 -59.0970 64° Northeast 522 601 35,000  Level FlightAware
09:44PM 46.5830 -58.9900 64° Northeast 522 601 35,000  Level FlightAware
09:44PM 46.6190 -58.8830 64° Northeast 522 601 35,000  Level FlightAware
09:45PM 46.6550 -58.7750 64° Northeast 522 601 35,000  Level FlightAware
09:46PM 46.7000 -58.6410 64° Northeast 522 601 35,000  Level FlightAware
09:47PM 46.7360 -58.5330 64° Northeast 522 601 35,000  Level FlightAware
09:47PM 46.7720 -58.4250 64° Northeast 522 601 35,000  Level FlightAware
09:48PM 46.8080 -58.3170 64° Northeast 522 601 35,000  Level FlightAware
09:49PM 46.8440 -58.2100 64° Northeast 522 601 35,000  Level FlightAware
09:49PM 46.9970 -57.6610 68° East 523 602 35,000  Level FlightAware
09:50PM 47.0390 -57.5270 65° Northeast 523 602 35,000  Level FlightAware
09:51PM 47.0760 -57.4060 66° East 525 604 35,000  Level FlightAware
09:51PM 47.1230 -57.2510 66° East 525 604 35,000  Level FlightAware
09:52PM 47.1820 -57.0550 66° East 527 606 35,000  Level FlightAware
09:53PM 47.2220 -56.9230 66° East 528 608 35,000  Level FlightAware
09:54PM 47.2650 -56.7800 66° East 528 608 35,000  Level FlightAware
09:55PM 47.3190 -56.5960 67° East 528 608 35,000  Level FlightAware
09:55PM 47.3510 -56.4920 66° East 528 608 35,000  Level FlightAware
09:56PM 47.3840 -56.3800 66° East 528 608 35,000 900 Level FlightAware
09:57PM 47.4400 -56.1830 67° East 540 621 36,400 1,380 Climbing FlightAware
09:58PM 47.4790 -56.0480 67° East 540 621 37,100 1,080 Climbing FlightAware
09:58PM 47.5230 -55.8960 67° East 535 616 38,000 600 Climbing FlightAware
09:59PM 47.5640 -55.7550 67° East 539 620 38,000  Level FlightAware
10:00PM 47.6030 -55.6190 67° East 540 621 38,000  Level FlightAware
10:00PM 47.6450 -55.4710 67° East 537 618 38,000  Level FlightAware
10:01PM 47.6840 -55.3330 67° East 536 617 38,000  Level FlightAware
10:02PM 47.7260 -55.1830 67° East 535 616 38,000  Level FlightAware
10:02PM 47.7650 -55.0440 67° East 535 616 38,000  Level FlightAware
10:03PM 47.8030 -54.9060 68° East 532 612 38,000  Level FlightAware
10:04PM 47.8430 -54.7590 68° East 531 611 38,000  Level FlightAware
10:05PM 47.8810 -54.6230 67° East 532 612 38,000  Level FlightAware
10:05PM 47.9230 -54.4670 68° East 530 610 38,000  Level FlightAware
10:06PM 47.9590 -54.3330 68° East 530 610 38,000  Level FlightAware
10:07PM 47.9990 -54.1840 68° East 529 609 38,000  Level FlightAware
10:07PM 48.0350 -54.0490 68° East 530 610 38,000  Level FlightAware
10:08PM 48.0720 -53.9120 68° East 529 609 38,000  Level FlightAware
10:09PM 48.1130 -53.7550 69° East 528 608 38,000  Level FlightAware
10:09PM 48.1480 -53.6190 69° East 527 606 38,000  Level FlightAware
10:10PM 48.1830 -53.4840 69° East 527 606 38,000  Level FlightAware
10:11PM 48.2220 -53.3330 69° East 527 606 38,000  Level FlightAware
10:12PM 48.2560 -53.1970 69° East 528 608 38,000  Level FlightAware
10:12PM 48.2960 -53.0390 69° East 528 608 38,000  Level FlightAware
10:13PM 48.3310 -52.9020 69° East 527 606 38,000  Level FlightAware
10:14PM 48.3680 -52.7510 70° East 526 605 38,000  Level FlightAware
10:14PM 48.4020 -52.6180 69° East 528 608 38,000  Level FlightAware
10:15PM 48.4360 -52.4790 70° East 529 609 38,000  Level FlightAware
10:16PM 48.4740 -52.3300 69° East 530 610 38,000  Level FlightAware
10:16PM 48.5080 -52.1910 70° East 526 605 38,000  Level FlightAware
10:17PM 48.5460 -52.0320 70° East 530 610 38,000  Level FlightAware
10:18PM 48.5800 -51.8940 70° East 530 610 38,000  Level FlightAware
10:19PM 48.6130 -51.7540 70° East 530 610 38,000  Level FlightAware
10:19PM 48.6510 -51.5950 70° East 530 610 38,000  Level FlightAware
10:20PM 48.6840 -51.4580 70° East 530 610 38,000  Level FlightAware
10:21PM 48.7170 -51.3160 71° East 531 611 38,000  Level FlightAware
10:21PM 48.7540 -51.1610 70° East 532 612 38,000  Level FlightAware
10:22PM 48.7830 -51.0360 71° East 529 609 38,000  Level FlightAware
10:23PM 48.8230 -50.8600 71° East 528 608 38,000  Level FlightAware
10:23PM 48.8540 -50.7210 71° East 528 608 38,000  Level FlightAware
10:24PM 48.8910 -50.5610 71° East 527 606 38,000  Level FlightAware
10:25PM 48.9220 -50.4190 72° East 527 606 38,000  Level FlightAware
10:26PM 48.9530 -50.2790 71° East 527 606 38,000  Level FlightAware
10:26PM 48.9850 -50.1340 71° East 527 606 38,000  Level FlightAware
10:27PM 49.0100 -50.0140 72° East 527 606 38,000  Level FlightAware
10:27PM 49.0000 -50.0000 77° East 525 604 38,000  Level ETMS Enhanced Traffic Management System
10:28PM 49.0360 -49.8940 72° East 527 606 38,000  Level FlightAware
10:28PM 49.0610 -49.7740 72° East 527 606 38,000  Level FlightAware
10:29PM 49.0870 -49.6530 72° East 527 606 38,000  Level FlightAware
10:30PM 49.1190 -49.5030 72° East 527 606 38,000  Level FlightAware
10:30PM 49.1450 -49.3820 72° East 527 606 38,000  Level FlightAware
10:31PM 49.1700 -49.2620 72° East 527 606 38,000  Level FlightAware
10:32PM 49.1960 -49.1410 72° East 527 606 38,000  Level FlightAware
10:32PM 49.2210 -49.0200 77° East 527 606 38,000  Level FlightAware
10:33PM 49.2530 -48.8690 72° East 527 606 38,000  Level FlightAware
10:34PM 49.2790 -48.7490 72° East 527 606 38,000  Level FlightAware
10:35PM 49.3050 -48.6280 72° East 527 606 38,000  Level FlightAware
10:35PM 49.3300 -48.5070 72° East 527 606 38,000  Level FlightAware
10:36PM 49.2500 -47.9667 72° East 520 598 38,000  Level Gander Center
10:37PM 49.2833 -47.7500 77° East 520 598 38,000  Level Gander Center
10:38PM 49.3000 -47.5167 84° East 530 610 38,000  Level Gander Center
10:39PM 49.3333 -47.3000 77° East 530 610 38,000  Level Gander Center
10:40PM 49.3667 -47.0833 77° East 530 610 38,000  Level Gander Center
10:42PM 49.4076 -46.7414 79° East  Level FlightAware Approximate
10:49PM 49.5702 -45.2849 80° East  Level FlightAware Approximate
10:50PM 49.5919 -45.0760 81° East  Level FlightAware Approximate
10:51PM 49.6132 -44.8670 81° East  Level FlightAware Approximate
10:52PM 49.6342 -44.6577 81° East  Level FlightAware Approximate
10:53PM 49.6548 -44.4483 81° East  Level FlightAware Approximate
10:54PM 49.6750 -44.2388 81° East  Level FlightAware Approximate
10:55PM 49.6949 -44.0290 82° East  Level FlightAware Approximate
10:56PM 49.7143 -43.8191 82° East  Level FlightAware Approximate
10:57PM 49.7334 -43.6090 82° East  Level FlightAware Approximate
10:58PM 49.7521 -43.3988 82° East  Level FlightAware Approximate
10:59PM 49.7704 -43.1883 82° East  Level FlightAware Approximate
11:00PM 49.7883 -42.9778 82° East  Level FlightAware Approximate
11:01PM 49.8059 -42.7671 83° East  Level FlightAware Approximate
11:02PM 49.8231 -42.5562 83° East  Level FlightAware Approximate
11:03PM 49.8399 -42.3452 83° East  Level FlightAware Approximate
11:04PM 49.8563 -42.1340 83° East  Level FlightAware Approximate
11:05PM 49.8723 -41.9227 83° East  Level FlightAware Approximate
11:06PM 49.8879 -41.7112 83° East  Level FlightAware Approximate
11:07PM 49.9032 -41.4996 84° East  Level FlightAware Approximate
11:08PM 49.9180 -41.2879 84° East  Level FlightAware Approximate
11:09PM 49.9325 -41.0761 84° East  Level FlightAware Approximate
11:10PM 49.9466 -40.8641 84° East  Level FlightAware Approximate
11:11PM 49.9603 -40.6520 84° East  Level FlightAware Approximate
11:11PM 50.0000 -40.0000 77° East 526 605 38,000  Level ETMS Enhanced Traffic Management System
11:12PM 49.9736 -40.4398 84° East  Level FlightAware Approximate
11:13PM 49.9866 -40.2275 85° East  Level FlightAware Approximate
11:14PM 49.9991 -40.0151 85° East  Level FlightAware Approximate
11:15PM 50.0280 -39.8066 77° East  Level FlightAware Approximate
11:16PM 50.0578 -39.5981 77° East  Level FlightAware Approximate
11:17PM 50.0872 -39.3894 78° East  Level FlightAware Approximate
11:18PM 50.2159 -38.4399 78° East 526 605 38,000  Level FlightAware Transoceanic
11:19PM 50.2450 -38.2159 79° East 526 605 38,000  Level FlightAware Transoceanic
11:20PM 50.2737 -37.9917 79° East 526 605 38,000  Level FlightAware Transoceanic
11:21PM 50.3020 -37.7671 79° East 526 605 38,000  Level FlightAware Transoceanic
11:22PM 50.3298 -37.5423 79° East 526 605 38,000  Level FlightAware Transoceanic
11:23PM 50.3572 -37.3173 79° East 526 605 38,000  Level FlightAware Transoceanic
11:24PM 50.3842 -37.0919 79° East 526 605 38,000  Level FlightAware Transoceanic
11:25PM 50.4107 -36.8664 80° East 526 605 38,000  Level FlightAware Transoceanic
11:26PM 50.4368 -36.6405 80° East 526 605 38,000  Level FlightAware Transoceanic
11:27PM 50.4625 -36.4145 80° East 526 605 38,000  Level FlightAware Transoceanic
11:28PM 50.4877 -36.1882 80° East 526 605 38,000  Level FlightAware Transoceanic
11:29PM 50.5125 -35.9616 80° East 526 605 38,000  Level FlightAware Transoceanic
11:30PM 50.5368 -35.7348 81° East 526 605 38,000  Level FlightAware Transoceanic
11:31PM 50.5607 -35.5078 81° East 526 605 38,000  Level FlightAware Transoceanic
11:32PM 50.5841 -35.2805 81° East 526 605 38,000  Level FlightAware Transoceanic
11:33PM 50.6072 -35.0531 81° East 526 605 38,000  Level FlightAware Transoceanic
11:34PM 50.6297 -34.8254 81° East 526 605 38,000  Level FlightAware Transoceanic
11:35PM 50.6519 -34.5975 81° East 526 605 38,000  Level FlightAware Transoceanic
11:36PM 50.6735 -34.3693 82° East 526 605 38,000  Level FlightAware Transoceanic
11:37PM 50.6948 -34.1410 82° East 526 605 38,000  Level FlightAware Transoceanic
11:38PM 50.7156 -33.9125 82° East 526 605 38,000  Level FlightAware Transoceanic
11:39PM 50.7359 -33.6837 82° East 526 605 38,000  Level FlightAware Transoceanic
11:40PM 50.7558 -33.4548 82° East 526 605 38,000  Level FlightAware Transoceanic
11:41PM 50.7752 -33.2257 82° East 526 605 38,000  Level FlightAware Transoceanic
11:42PM 50.7942 -32.9963 83° East 526 605 38,000  Level FlightAware Transoceanic
11:43PM 50.8128 -32.7668 83° East 526 605 38,000  Level FlightAware Transoceanic
11:44PM 50.8309 -32.5372 83° East 526 605 38,000  Level FlightAware Transoceanic
11:45PM 50.8485 -32.3073 83° East 526 605 38,000  Level FlightAware Transoceanic
11:46PM 50.8657 -32.0773 83° East 526 605 38,000  Level FlightAware Transoceanic
11:47PM 50.8824 -31.8471 84° East 526 605 38,000  Level FlightAware Transoceanic
11:48PM 50.8987 -31.6167 84° East 526 605 38,000  Level FlightAware Transoceanic
11:49PM 50.9146 -31.3862 84° East 526 605 38,000  Level FlightAware Transoceanic
11:50PM 50.9299 -31.1555 84° East 526 605 38,000  Level FlightAware Transoceanic
11:51PM 50.9449 -30.9247 84° East 526 605 38,000  Level FlightAware Transoceanic
11:52PM 50.9593 -30.6937 84° East 526 605 38,000  Level FlightAware Transoceanic
11:53PM 50.9733 -30.4626 85° East 526 605 38,000  Level FlightAware Transoceanic
11:54PM 50.9869 -30.2314 85° East 526 605 38,000  Level FlightAware Transoceanic
11:55PM 50.9992 -30.0144 85° East  Level FlightAware Approximate
11:56PM 51.0111 -29.7972 85° East  Level FlightAware Approximate
11:57PM 51.0263 -29.8155 77° East  Level FlightAware Approximate
11:58PM 51.0562 -29.6026 77° East  Level FlightAware Approximate
11:59PM 51.0857 -29.3895 77° East  Level FlightAware Approximate
11:59PM 51.0000 -30.0000 77° East 503 579 38,000  Level ETMS Enhanced Traffic Management System
12:00AM 51.1149 -29.1761 78° East  Level FlightAware Approximate
12:01AM 51.1436 -28.9624 78° East  Level FlightAware Approximate
12:02AM 51.1720 -28.7485 78° East  Level FlightAware Approximate
12:03AM 51.2003 -28.5321 78° East  Level FlightAware Approximate
12:04AM 51.2281 -28.3154 78° East  Level FlightAware Approximate
12:05AM 51.2675 -28.0378 79° East 503 579 38,000  Level FlightAware Transoceanic
12:06AM 51.2952 -27.8185 79° East 503 579 38,000  Level FlightAware Transoceanic
12:07AM 51.3225 -27.5988 79° East 503 579 38,000  Level FlightAware Transoceanic
12:08AM 51.3493 -27.3789 79° East 503 579 38,000  Level FlightAware Transoceanic
12:09AM 51.3758 -27.1587 79° East 503 579 38,000  Level FlightAware Transoceanic
12:10AM 51.4018 -26.9383 79° East 503 579 38,000  Level FlightAware Transoceanic
12:11AM 51.4274 -26.7176 80° East 503 579 38,000  Level FlightAware Transoceanic
12:12AM 51.4527 -26.4967 80° East 503 579 38,000  Level FlightAware Transoceanic
12:13AM 51.4775 -26.2755 80° East 503 579 38,000  Level FlightAware Transoceanic
12:14AM 51.5018 -26.0541 80° East 503 579 38,000  Level FlightAware Transoceanic
12:15AM 51.5258 -25.8325 80° East 503 579 38,000  Level FlightAware Transoceanic
12:16AM 51.5493 -25.6106 80° East 503 579 38,000  Level FlightAware Transoceanic
12:17AM 51.5725 -25.3885 81° East 503 579 38,000  Level FlightAware Transoceanic
12:18AM 51.5952 -25.1662 81° East 503 579 38,000  Level FlightAware Transoceanic
12:19AM 51.6175 -24.9437 81° East 503 579 38,000  Level FlightAware Transoceanic
12:20AM 51.6393 -24.7209 81° East 503 579 38,000  Level FlightAware Transoceanic
12:21AM 51.6608 -24.4980 81° East 503 579 38,000  Level FlightAware Transoceanic
12:22AM 51.6818 -24.2748 81° East 503 579 38,000  Level FlightAware Transoceanic
12:23AM 51.7024 -24.0514 82° East 503 579 38,000  Level FlightAware Transoceanic
12:24AM 51.7225 -23.8278 82° East 503 579 38,000  Level FlightAware Transoceanic
12:25AM 51.7423 -23.6041 82° East 503 579 38,000  Level FlightAware Transoceanic
12:26AM 51.7616 -23.3801 82° East 503 579 38,000  Level FlightAware Transoceanic
12:27AM 51.7805 -23.1559 82° East 503 579 38,000  Level FlightAware Transoceanic
12:28AM 51.7990 -22.9316 83° East 503 579 38,000  Level FlightAware Transoceanic
12:29AM 51.8170 -22.7071 83° East 503 579 38,000  Level FlightAware Transoceanic
12:30AM 51.8346 -22.4823 83° East 503 579 38,000  Level FlightAware Transoceanic
12:31AM 51.8518 -22.2575 83° East 503 579 38,000  Level FlightAware Transoceanic
12:32AM 51.8686 -22.0324 83° East 503 579 38,000  Level FlightAware Transoceanic
12:33AM 51.8849 -21.8072 83° East 503 579 38,000  Level FlightAware Transoceanic
12:34AM 51.9008 -21.5818 84° East 503 579 38,000  Level FlightAware Transoceanic
12:35AM 51.9163 -21.3563 84° East 503 579 38,000  Level FlightAware Transoceanic
12:36AM 51.9313 -21.1306 84° East 503 579 38,000  Level FlightAware Transoceanic
12:37AM 51.9459 -20.9048 84° East 503 579 38,000  Level FlightAware Transoceanic
12:38AM 51.9601 -20.6788 84° East 503 579 38,000  Level FlightAware Transoceanic
12:39AM 51.9738 -20.4527 84° East 503 579 38,000  Level FlightAware Transoceanic
12:40AM 51.9871 -20.2264 85° East 503 579 38,000  Level FlightAware Transoceanic
12:41AM 51.9999 -20.0023 85° East  Level FlightAware Approximate
12:42AM 52.0122 -19.7782 85° East  Level FlightAware Approximate
12:43AM 51.9679 -19.7860 104° East  Level FlightAware Approximate
12:44AM 51.9347 -19.5677 104° East  Level FlightAware Approximate
12:45AM 51.9011 -19.3498 104° East  Level FlightAware Approximate
12:46AM 51.8670 -19.1322 104° East  Level FlightAware Approximate
12:47AM 51.8326 -18.9149 104° East  Level FlightAware Approximate
12:48AM 51.7978 -18.6980 104° East  Level FlightAware Approximate
12:49AM 51.7626 -18.4814 105° East  Level FlightAware Approximate
12:50AM 51.7270 -18.2652 105° East  Level FlightAware Approximate
12:51AM 51.6910 -18.0493 105° East  Level FlightAware Approximate
12:52AM 51.6546 -17.8337 105° East  Level FlightAware Approximate
12:53AM 51.6178 -17.6185 105° East  Level FlightAware Approximate
12:54AM 51.5806 -17.4036 105° East  Level FlightAware Approximate
12:55AM 51.5430 -17.1891 106° East  Level FlightAware Approximate
12:56AM 51.5051 -16.9749 106° East  Level FlightAware Approximate
12:57AM 51.4667 -16.7611 106° East  Level FlightAware Approximate
12:58AM 51.4280 -16.5477 106° East  Level FlightAware Approximate
12:59AM 51.3888 -16.3346 106° East  Level FlightAware Approximate
01:00AM 51.3493 -16.1219 106° East  Level FlightAware Approximate
01:01AM 51.3094 -15.9096 107° East  Level FlightAware Approximate
01:02AM 51.2691 -15.6976 107° East  Level FlightAware Approximate
01:03AM 51.2285 -15.4860 107° East  Level FlightAware Approximate
01:04AM 51.1874 -15.2748 107° East  Level FlightAware Approximate
01:05AM 51.1460 -15.0639 107° East  Level FlightAware Approximate
01:06AM 51.1058 -14.8527 107° East  Level FlightAware Approximate
01:07AM 51.0660 -14.6414 107° East  Level FlightAware Approximate
01:08AM 51.0257 -14.4305 107° East  Level FlightAware Approximate
01:09AM 50.9835 -14.2209 108° East  Level FlightAware Approximate
01:10AM 50.9404 -14.0118 108° East  Level FlightAware Approximate
01:11AM 50.8969 -13.8031 108° East  Level FlightAware Approximate
01:12AM 50.8531 -13.5948 108° East  Level FlightAware Approximate
01:13AM 50.8089 -13.3869 109° East  Level FlightAware Approximate
01:14AM 50.7643 -13.1794 109° East  Level FlightAware Approximate
01:15AM 50.7194 -12.9723 109° East  Level FlightAware Approximate
01:16AM 50.6741 -12.7656 109° East  Level FlightAware Approximate
01:17AM 50.6284 -12.5593 109° East  Level FlightAware Approximate
01:18AM 50.5824 -12.3534 109° East  Level FlightAware Approximate
01:19AM 50.5360 -12.1479 109° East  Level FlightAware Approximate
01:20AM 50.4892 -11.9428 110° East  Level FlightAware Approximate
01:21AM 50.4421 -11.7381 110° East  Level FlightAware Approximate
01:22AM 50.3946 -11.5338 110° East  Level FlightAware Approximate
01:23AM 50.3468 -11.3299 110° East  Level FlightAware Approximate
01:24AM 50.2986 -11.1265 110° East  Level FlightAware Approximate
01:25AM 50.2501 -10.9234 110° East  Level FlightAware Approximate
01:26AM 50.2012 -10.7208 111° Southeast  Level FlightAware Approximate
01:27AM 50.1520 -10.5186 111° Southeast  Level FlightAware Approximate
01:28AM 50.1023 -10.3168 111° Southeast  Level FlightAware Approximate
01:29AM 50.0524 -10.1154 111° Southeast  Level FlightAware Approximate
01:30AM 50.0021 -9.9144 111° Southeast  Level FlightAware Approximate
01:31AM 49.9515 -9.7139 111° Southeast  Level FlightAware Approximate
01:32AM 49.9005 -9.5138 112° Southeast  Level FlightAware Approximate
01:32AM 50.3260 -9.9390 112° Southeast 502 578 38,000  Level FlightAware
01:33AM 49.8492 -9.3141 112° Southeast  Level FlightAware Approximate
01:33AM 50.2640 -9.7880 123° Southeast 503 579 38,000  Level FlightAware
01:33AM 50.2100 -9.6540 122° Southeast 504 580 38,000  Level FlightAware
01:34AM 50.1570 -9.5290 123° Southeast 506 582 38,000  Level FlightAware
01:35AM 50.0930 -9.3740 123° Southeast 507 583 38,000  Level FlightAware
01:36AM 50.0280 -9.2180 123° Southeast 507 583 38,000  Level FlightAware
01:36AM 49.9840 -9.1140 123° Southeast 508 585 38,000 -1,260 Level FlightAware
01:37AM 49.9281 -8.9937 123° Southeast 464 534 36,500  Descending FlightAware UK
01:37AM 49.9200 -8.9620 123° Southeast 504 580 38,000  Climbing FlightAware
01:38AM 49.8895 -8.9026 123° Southeast 462 532 36,500 -2,580 Descending FlightAware UK
01:38AM 49.8663 -8.8482 123° Southeast 462 532 36,500  Level FlightAware UK
01:38AM 49.8432 -8.7936 123° Southeast 462 532 36,500 4,500 Level FlightAware UK
01:38AM 49.8560 -8.8060 123° Southeast 505 581 38,000  Climbing FlightAware
01:38AM 49.8200 -8.7390 123° Southeast 464 534 36,500 -2,700 Descending FlightAware UK
01:39AM 49.7967 -8.6847 124° Southeast 464 534 36,500 3,720 Level FlightAware UK
01:39AM 49.8140 -8.7010 124° Southeast 505 581 38,000  Climbing FlightAware
01:39AM 49.7655 -8.6123 124° Southeast 466 536 36,500 -2,520 Descending FlightAware UK
01:39AM 49.7421 -8.5579 124° Southeast 464 534 36,500 4,080 Level FlightAware UK
01:39AM 49.7440 -8.5510 124° Southeast 506 582 38,000  Climbing FlightAware
01:40AM 49.7109 -8.4855 124° Southeast 466 536 36,500 -2,400 Descending FlightAware UK
01:40AM 49.6876 -8.4311 124° Southeast 464 534 36,500 3,600 Level FlightAware UK
01:40AM 49.6850 -8.4140 124° Southeast 506 582 38,000  Climbing FlightAware
01:41AM 49.6566 -8.3585 124° Southeast 464 534 36,500 -2,580 Descending FlightAware UK
01:41AM 49.6333 -8.3041 123° Southeast 464 534 36,500 3,900 Level FlightAware UK
01:41AM 49.6330 -8.2920 123° Southeast 505 581 38,000  Climbing FlightAware
01:41AM 49.6021 -8.2317 123° Southeast 466 536 36,500 -2,460 Descending FlightAware UK
01:42AM 49.5787 -8.1776 124° Southeast 466 536 36,500 3,420 Level FlightAware UK
01:42AM 49.5740 -8.1570 124° Southeast 505 581 38,000  Climbing FlightAware
01:42AM 49.5473 -8.1056 124° Southeast 466 536 36,500 -2,700 Descending FlightAware UK
01:42AM 49.5238 -8.0516 124° Southeast 466 536 36,500 3,720 Level FlightAware UK
01:42AM 49.5230 -8.0350 124° Southeast 508 585 38,000  Climbing FlightAware
01:43AM 49.5056 -7.9689 124° Southeast 464 534 36,500 -2,520 Descending FlightAware UK
01:43AM 49.4993 -7.9045 99° East 464 534 36,500 3,300 Level FlightAware UK
01:43AM 49.4990 -7.8770 99° East 511 588 38,000  Climbing FlightAware
01:43AM 49.4980 -7.8176 99° East 466 536 36,500 -2,760 Descending FlightAware UK
01:44AM 49.4958 -7.7526 93° East 466 536 36,500 3,600 Level FlightAware UK
01:44AM 49.4950 -7.7390 93° East 511 588 38,000  Climbing FlightAware
01:44AM 49.4934 -7.6659 93° East 466 536 36,500 -2,580 Descending FlightAware UK
01:44AM 49.4919 -7.6008 92° East 468 539 36,500 3,900 Level FlightAware UK
01:44AM 49.4910 -7.5880 92° East 511 588 38,000  Climbing FlightAware
01:45AM 49.4900 -7.5138 92° East 466 536 36,500 -2,460 Descending FlightAware UK
01:45AM 49.4885 -7.4485 92° East 466 536 36,500 3,420 Level FlightAware UK
01:45AM 49.4870 -7.4250 92° East 511 588 38,000  Climbing FlightAware
01:45AM 49.4865 -7.3616 92° East 468 539 36,500 -2,700 Descending FlightAware UK
01:46AM 49.4848 -7.2965 92° East 468 539 36,500 3,720 Level FlightAware UK
01:46AM 49.4830 -7.2780 92° East 510 587 38,000  Climbing FlightAware
01:46AM 49.4824 -7.2099 92° East 468 539 36,500 -2,520 Descending FlightAware UK
01:46AM 49.4805 -7.1450 93° East 468 539 36,500 3,300 Level FlightAware UK
01:47AM 49.4780 -7.1160 93° East 510 587 38,000  Climbing FlightAware
01:47AM 49.4778 -7.0584 93° East 468 539 36,500 -2,760 Descending FlightAware UK
01:47AM 49.4758 -6.9935 93° East 472 543 36,500 3,600 Level FlightAware UK
01:47AM 49.4740 -6.9700 93° East 509 586 38,000  Climbing FlightAware
01:48AM 49.4730 -6.9064 93° East 470 541 36,500 -2,580 Descending FlightAware UK
01:48AM 49.4712 -6.8416 92° East 468 539 36,500 3,900 Level FlightAware UK
01:48AM 49.4690 -6.8280 92° East 507 583 38,000  Climbing FlightAware
01:48AM 49.4684 -6.7560 92° East 468 539 36,500 -2,460 Descending FlightAware UK
01:49AM 49.4663 -6.6920 93° East 466 536 36,500 3,420 Level FlightAware UK
01:49AM 49.4640 -6.6660 93° East 505 581 38,000  Climbing FlightAware
01:49AM 49.4634 -6.6066 93° East 466 536 36,500 -2,700 Descending FlightAware UK
01:49AM 49.4611 -6.5426 93° East 466 536 36,500 3,720 Level FlightAware UK
01:49AM 49.4590 -6.5210 93° East 504 580 38,000  Climbing FlightAware
01:50AM 49.4573 -6.4360 93° East 462 532 36,500  Descending FlightAware UK
01:50AM 49.4530 -6.3630 93° East 504 580 38,000  Climbing FlightAware
01:50AM 49.4527 -6.3079 93° East 462 532 36,500 -2,760 Descending FlightAware UK
01:51AM 49.4503 -6.2439 93° East 460 529 36,500 3,600 Level FlightAware UK
01:51AM 49.4470 -6.2180 93° East 503 579 38,000  Climbing FlightAware
01:51AM 49.4470 -6.1586 93° East 460 529 36,500 -2,580 Descending FlightAware UK
01:51AM 49.4445 -6.0945 93° East 458 527 36,500 3,900 Level FlightAware UK
01:51AM 49.4420 -6.0770 93° East 504 580 38,000  Climbing FlightAware
01:52AM 49.4413 -6.0090 93° East 464 534 36,500 -2,460 Descending FlightAware UK
01:52AM 49.4388 -5.9449 93° East 466 536 36,500 3,420 Level FlightAware UK
01:52AM 49.4350 -5.9180 93° East 505 581 38,000  Climbing FlightAware
01:52AM 49.4354 -5.8592 93° East 466 536 36,500 -2,700 Descending FlightAware UK
01:53AM 49.4331 -5.7940 93° East 468 539 36,500 3,720 Level FlightAware UK
01:53AM 49.4300 -5.7730 93° East 505 581 38,000  Climbing FlightAware
01:53AM 49.4300 -5.7083 93° East 466 536 36,500 -2,520 Descending FlightAware UK
01:53AM 49.4274 -5.6439 93° East 466 536 36,500 3,300 Level FlightAware UK
01:54AM 49.4230 -5.6100 93° East 506 582 38,000  Climbing FlightAware
01:54AM 49.4239 -5.5581 93° East 464 534 36,500 -2,760 Descending FlightAware UK
01:54AM 49.4210 -5.4938 94° East 464 534 36,500 3,600 Level FlightAware UK
01:54AM 49.4170 -5.4650 94° East 506 582 38,000  Climbing FlightAware
01:55AM 49.4172 -5.4081 94° East 464 534 36,500 -2,580 Descending FlightAware UK
01:55AM 49.4144 -5.3438 94° East 464 534 36,500 3,900 Level FlightAware UK
01:55AM 49.4110 -5.3230 94° East 506 582 38,000  Climbing FlightAware
01:55AM 49.4099 -5.2367 94° East 464 534 36,500  Descending FlightAware UK
01:56AM 49.4030 -5.1610 94° East 506 582 38,000  Climbing FlightAware
01:56AM 49.4039 -5.1081 94° East 464 534 36,500 -2,700 Descending FlightAware UK
01:56AM 49.4009 -5.0431 94° East 466 536 36,500 3,720 Level FlightAware UK
01:56AM 49.3970 -5.0200 94° East 506 582 38,000  Climbing FlightAware
01:57AM 49.3969 -4.9574 94° East 466 536 36,500 -2,520 Descending FlightAware UK
01:57AM 49.3938 -4.8930 94° East 468 539 36,500 4,080 Level FlightAware UK
01:57AM 49.3900 -4.8780 94° East 505 581 38,000  Climbing FlightAware
01:57AM 49.3897 -4.8074 94° East 466 536 36,500 -2,400 Descending FlightAware UK
01:58AM 49.3867 -4.7432 94° East 466 536 36,500 3,600 Level FlightAware UK
01:58AM 49.3820 -4.7150 94° East 505 581 38,000  Climbing FlightAware
01:58AM 49.3825 -4.6576 94° East 466 536 36,500 -2,580 Descending FlightAware UK
01:58AM 49.3793 -4.5935 94° East 464 534 36,500 3,900 Level FlightAware UK
01:58AM 49.3750 -4.5750 94° East 504 580 38,000  Climbing FlightAware
01:59AM 49.3748 -4.5080 94° East 464 534 36,500 -2,460 Descending FlightAware UK
01:59AM 49.3713 -4.4441 95° East 464 534 36,500 3,420 Level FlightAware UK
01:59AM 49.3670 -4.4120 95° East 505 581 38,000  Climbing FlightAware
01:59AM 49.3666 -4.3586 95° East 466 536 36,500  Descending FlightAware UK
02:00AM 49.3590 -4.2720 95° East 504 580 38,000  Climbing FlightAware
02:00AM 49.3587 -4.2084 95° East 466 536 36,500 -2,460 Descending FlightAware UK
02:00AM 49.3553 -4.1444 95° East 466 536 36,500 3,420 Level FlightAware UK
02:01AM 49.3500 -4.1060 95° East 503 579 38,000  Climbing FlightAware
02:01AM 49.3505 -4.0590 95° East 466 536 36,500  Descending FlightAware UK
02:01AM 49.3430 -3.9720 95° East 503 579 38,000  Climbing FlightAware
02:02AM 49.3421 -3.9098 95° East 470 541 36,500 -2,520 Descending FlightAware UK
02:02AM 49.3384 -3.8459 95° East 472 543 36,500 4,080 Level FlightAware UK
02:02AM 49.3340 -3.8210 95° East 502 578 38,000  Climbing FlightAware
02:02AM 49.3335 -3.7603 95° East 470 541 36,500 -2,400 Descending FlightAware UK
02:03AM 49.3300 -3.6968 95° East 470 541 36,500 3,600 Level FlightAware UK
02:03AM 49.3250 -3.6650 95° East 500 575 38,000  Climbing FlightAware
02:03AM 49.3251 -3.6123 95° East 470 541 36,500 -2,580 Descending FlightAware UK
02:03AM 49.3213 -3.5490 95° East 470 541 36,500 3,900 Level FlightAware UK
02:03AM 49.3170 -3.5220 95° East 499 574 38,000  Climbing FlightAware
02:04AM 49.3161 -3.4648 95° East 468 539 36,500 -2,100 Descending FlightAware UK
02:04AM 49.3109 -3.3808 95° East 466 536 36,500  Level FlightAware UK
02:04AM 49.3069 -3.3173 95° East 466 536 36,500  Level FlightAware UK
02:05AM 49.3031 -3.2544 95° East 468 539 36,500  Level FlightAware UK
02:05AM 49.2994 -3.1917 95° East 466 536 36,500  Level FlightAware UK
02:05AM 49.2954 -3.1292 96° East 466 536 36,500  Level FlightAware UK
02:06AM 49.2888 -3.0250 96° East 466 536 36,500  Level FlightAware UK
02:06AM 49.2848 -2.9626 96° East 466 536 36,500  Level FlightAware UK
02:07AM 49.2767 -2.8373 96° East 464 534 36,500  Level FlightAware UK
02:07AM 49.2711 -2.7536 96° East 464 534 36,500  Level FlightAware UK
02:07AM 49.2671 -2.6923 96° East 464 534 36,500  Level FlightAware UK
02:08AM 49.2615 -2.6096 96° East 464 534 36,500  Level FlightAware UK
02:08AM 49.2556 -2.5262 96° East 464 534 36,500  Level FlightAware UK
02:08AM 49.2512 -2.4642 96° East 464 534 36,500  Level FlightAware UK
02:09AM 49.2470 -2.4014 96° East 464 534 36,500  Level FlightAware UK
02:09AM 49.2428 -2.3396 96° East 464 534 36,500 3,720 Level FlightAware UK
02:09AM 49.2400 -2.3230 96° East 488 562 38,000  Climbing FlightAware
02:09AM 49.2368 -2.2574 96° East 462 532 36,500  Descending FlightAware UK
02:10AM 49.2310 -2.1950 96° East 488 562 38,000  Climbing FlightAware
02:10AM 49.2261 -2.1126 96° East 462 532 36,500 -2,400 Descending FlightAware UK
02:10AM 49.2217 -2.0515 96° East 462 532 36,500 4,500 Level FlightAware UK
02:10AM 49.2210 -2.0590 96° East 488 562 38,000  Climbing FlightAware
02:11AM 49.2123 -1.9702 96° East 462 532 36,500  Descending FlightAware UK
02:11AM 49.2030 -1.9040 102° East 488 562 38,000  Climbing FlightAware
02:11AM 49.2009 -1.8901 102° East 462 532 36,500 -5,040 Descending FlightAware UK
02:11AM 49.1952 -1.8486 102° East 462 532 36,500  Level FlightAware UK
02:12AM 49.1869 -1.7883 102° East 464 534 36,500 2,760 Level FlightAware UK
02:12AM 49.1800 -1.7390 102° East 489 563 38,000  Climbing FlightAware
02:12AM 49.1731 -1.6863 102° East 464 534 36,500 -2,280 Descending FlightAware UK
02:13AM 49.1617 -1.6047 102° East 464 534 36,500 3,720 Level FlightAware UK
02:13AM 49.1610 -1.6030 102° East 489 563 38,000  Climbing FlightAware
02:13AM 49.1531 -1.5438 102° East 466 536 36,500 -2,520 Descending FlightAware UK
02:13AM 49.1439 -1.4823 103° East 466 536 36,500 4,080 Level FlightAware UK
02:13AM 49.1420 -1.4650 103° East 489 563 38,000  Climbing FlightAware
02:14AM 49.1325 -1.4010 103° East 466 536 36,500  Descending FlightAware UK
02:14AM 49.1210 -1.3170 103° East 489 563 38,000  Climbing FlightAware
02:15AM 49.1061 -1.2182 103° East 466 536 36,500  Descending FlightAware UK
02:15AM 49.1010 -1.1790 103° East 489 563 38,000  Climbing FlightAware
02:15AM 49.0917 -1.1170 103° East 466 536 36,500  Descending FlightAware UK
02:15AM 49.0800 -1.0280 103° East 488 562 38,000  Climbing FlightAware
02:16AM 49.0714 -0.9748 103° East 466 536 36,500  Descending FlightAware UK
02:16AM 49.0630 -0.9050 103° East 487 560 38,000  Climbing FlightAware
02:17AM 49.0515 -0.8123 103° East 468 539 36,500  Descending FlightAware UK
02:17AM 49.0460 -0.7630 103° East 486 559 38,000  Climbing FlightAware
02:17AM 49.0394 -0.7102 103° East 466 536 36,500 -2,760 Descending FlightAware UK
02:17AM 49.0320 -0.6493 100° East 466 536 36,500 3,000 Level FlightAware UK
02:18AM 49.0290 -0.6170 100° East 486 559 38,000  Climbing FlightAware
02:18AM 49.0169 -0.5277 100° East 462 532 36,500 -2,160 Descending FlightAware UK
02:18AM 49.0090 -0.4671 101° East 462 532 36,500  Level FlightAware UK
02:19AM 49.0010 -0.4056 101° East 464 534 36,500 3,180 Level FlightAware UK
02:19AM 49.0000 -0.3900 101° East 486 559 38,000  Climbing FlightAware
02:19AM 48.9851 -0.2841 101° East 466 536 36,500  Descending FlightAware UK
02:19AM 48.9800 -0.2350 101° East 488 562 38,000  Climbing FlightAware
02:20AM 48.9719 -0.1828 101° East 466 536 36,500 -2,700 Descending FlightAware UK
02:20AM 48.9640 -0.1212 101° East 466 536 36,500 3,060 Level FlightAware UK
02:20AM 48.9610 -0.0850 101° East 489 563 38,000  Climbing FlightAware
02:20AM 48.9508 -0.0193 101° East 464 534 36,500  Descending FlightAware UK
02:21AM 48.9430 0.0490 101° East 490 564 38,000  Climbing FlightAware
02:21AM 48.9319 0.1224 101° East 466 536 36,500  Descending FlightAware UK
02:21AM 48.9260 0.1850 101° East 489 563 38,000  Climbing FlightAware
02:22AM 48.9102 0.2845 101° East 468 539 36,500  Descending FlightAware UK
02:22AM 48.9060 0.3330 101° East 489 563 38,000  Climbing FlightAware
02:22AM 48.8967 0.3872 101° East 468 539 36,500  Descending FlightAware UK
02:23AM 48.8890 0.4630 101° East 489 563 38,000  Climbing FlightAware
02:23AM 48.8777 0.5289 101° East 466 536 36,500  Descending FlightAware UK
02:24AM 48.8680 0.6200 101° East 490 564 38,000  Climbing FlightAware
02:24AM 48.8557 0.6914 101° East 468 539 36,500 -1,620 Descending FlightAware UK
02:24AM 48.8473 0.7519 102° East 464 534 37,000 6,000 Climbing FlightAware UK
02:24AM 48.8490 0.7530 102° East 488 562 38,500 660 Climbing FlightAware
02:25AM 48.8274 0.8929 102° East 466 536 37,500 720 Descending FlightAware UK
02:25AM 48.8310 0.8880 102° East 492 566 39,000  Climbing FlightAware
02:25AM 48.8187 0.9536 102° East 470 541 37,500 -2,160 Descending FlightAware UK
02:26AM 48.8066 1.0369 102° East 476 548 37,500 3,300 Level FlightAware UK
02:26AM 48.8080 1.0470 102° East 500 575 39,000  Climbing FlightAware
02:26AM 48.7952 1.1200 102° East 472 543 37,500  Descending FlightAware UK
02:26AM 48.7890 1.1850 102° East 494 568 39,000  Climbing FlightAware
02:27AM 48.7776 1.2427 102° East 468 539 37,500 -2,580 Descending FlightAware UK
02:27AM 48.7688 1.3031 102° East 466 536 37,500 3,900 Level FlightAware UK
02:27AM 48.7710 1.3130 102° East 490 564 39,000  Climbing FlightAware
02:27AM 48.7577 1.3831 102° East 466 536 37,500 -2,460 Descending FlightAware UK
02:28AM 48.7490 1.4439 102° East 464 534 37,500 3,420 Level FlightAware UK
02:28AM 48.7510 1.4530 102° East 487 560 39,000  Climbing FlightAware
02:28AM 48.7374 1.5238 102° East 464 534 37,500 -2,700 Descending FlightAware UK
02:28AM 48.7290 1.5835 102° East 462 532 37,500 3,720 Level FlightAware UK
02:28AM 48.7300 1.5950 102° East 483 556 39,000  Climbing FlightAware
02:29AM 48.7149 1.6824 102° East 462 532 37,500  Descending FlightAware UK
02:29AM 48.7080 1.7480 102° East 480 552 39,000  Climbing FlightAware
02:30AM 48.6949 1.8201 102° East 460 529 37,500 -1,800 Descending FlightAware UK
02:30AM 48.6803 1.9180 103° East 458 527 37,500 2,640 Level FlightAware UK
02:30AM 48.6830 1.9220 103° East 476 548 39,000  Climbing FlightAware
02:31AM 48.6656 2.0165 103° East 458 527 37,500  Descending FlightAware UK
02:31AM 48.6500 2.1420 103° East 476 548 39,000 1,200 Climbing FlightAware
02:32AM 48.6322 2.2590 103° East 478 550 39,000  Level FlightAware ADS-B
02:32AM 48.6164 2.3617 103° East 478 550 39,000  Level FlightAware ADS-B
02:33AM 48.5882 2.5457 103° East 480 552 39,000  Level FlightAware ADS-B
02:34AM 48.5626 2.7071 103° East 480 552 39,000  Level FlightAware ADS-B
02:34AM 48.5584 2.7325 104° East 481 554 39,000  Level FlightAware ADS-B
02:35AM 48.5295 2.9007 104° East 483 556 39,000  Level FlightAware ADS-B
02:36AM 48.5120 3.0040 104° East 481 554 39,000  Level FlightAware
02:36AM 48.4893 3.1343 105° East 483 556 39,000  Level FlightAware ADS-B
02:37AM 48.4722 3.2336 105° East 485 558 39,000  Level FlightAware ADS-B
02:38AM 48.4410 3.4090 105° East 483 556 39,000  Level FlightAware
02:38AM 48.4170 3.5430 105° East 484 557 39,000  Level FlightAware
02:39AM 48.3830 3.7330 105° East 482 555 39,000  Level FlightAware
02:40AM 48.3590 3.8700 105° East 484 557 39,000  Level FlightAware
02:41AM 48.3330 4.0090 106° East 483 556 39,000  Level FlightAware
02:42AM 48.3010 4.1840 105° East 484 557 39,000  Level FlightAware
02:42AM 48.2770 4.3170 105° East 484 557 39,000  Level FlightAware
02:43AM 48.2410 4.5090 106° East 486 559 39,000 -240 Level FlightAware
02:44AM 48.2160 4.6390 106° East 489 563 38,600 -1,200 Descending FlightAware
02:45AM 48.1950 4.7530 105° East 491 565 37,500 -2,220 Descending FlightAware
02:46AM 48.1630 4.9210 106° East 486 559 35,500 -2,580 Descending FlightAware
02:46AM 48.1360 5.0600 106° East 484 557 33,700 -2,400 Descending FlightAware
02:47AM 48.1090 5.2000 106° East 474 545 32,100 -1,500 Descending FlightAware
02:48AM 48.0870 5.3120 106° East 460 529 31,700 -600 Descending FlightAware
02:48AM 48.0610 5.4420 107° East 454 522 31,300 -420 Descending FlightAware
02:49AM 48.0200 5.6430 107° East 459 528 31,000 -180 Descending FlightAware
02:50AM 47.9900 5.7910 107° East 460 529 31,000  Level FlightAware
02:51AM 47.9670 5.9030 107° East 459 528 31,000  Level FlightAware
02:51AM 47.9460 6.0030 107° East 456 525 31,000 -720 Level FlightAware
02:52AM 47.9180 6.1410 107° East 458 527 30,100 -1,560 Descending FlightAware
02:53AM 47.8890 6.2770 108° East 448 516 28,700 -1,920 Descending FlightAware
02:54AM 47.8620 6.4070 107° East 434 499 27,300 -1,680 Descending FlightAware
02:56AM 47.8182 6.7715 107° East  Level FlightAware Approximate
02:56AM 47.7810 6.7900 107° East 419 482 23,700  Level FlightAware
02:57AM 47.7550 6.9130 107° East 436 502 22,200 -1,980 Descending FlightAware
02:57AM 47.7270 7.0400 108° East 430 495 20,900 -1,980 Descending FlightAware
02:58AM 47.7030 7.1480 108° East 423 487 19,400 -2,340 Descending FlightAware
02:59AM 47.6790 7.2580 108° East 415 478 17,800 -2,400 Descending FlightAware
02:59AM 47.6540 7.3690 108° East 408 470 16,200 -900 Descending FlightAware
03:00AM 47.6350 7.4710 105° East 407 468 16,600 -2,040 Climbing FlightAware
03:01AM 47.6050 7.5950 110° East 390 449 13,200 -2,040 Descending FlightAware
03:04AM 47.5490 8.1105 108° East  Level FlightAware Approximate
03:05AM 47.4999 8.3006 102° East  Level FlightAware Approximate
03:05AM 47.6410 8.1380 102° East 313 360 6,900  Level FlightAware
03:06AM 47.6530 8.1860 70° East 308 354 6,500 -900 Descending FlightAware
03:09AM 47.4500 8.5333 113° Southeast  Level FlightAware Approximate
03:10AM 47.4647 8.5492 113° Southeast  Level Estimated
03:11AM 47.4647 8.5492 113° Southeast  Level Estimated
03:11AM 47.4590 8.5480 113° Southeast 133 153 1,700  Level FlightAware